Time;durP1;ratioP1;P1;durP2;ratioP2;P2;SDS_P1;SDS_P2;PMS_P1;PMS_P2;Temp;Humidity;BMP_temperature;BMP_pressure;BME280_temperature;BME280_humidity;BME280_pressure;Samples;Min_cycle;Max_cycle;Signal;HPM_P1;HPM_P2
2023/06/08 00:02:19;;;;;;;3.60;3.13;;;21.70;86.00;;;;;;5047968;28;20606;-69
2023/06/08 00:04:46;;;;;;;3.97;3.60;;;21.60;86.10;;;;;;5044467;28;20516;-69
2023/06/08 00:07:16;;;;;;;3.90;3.60;;;21.60;86.20;;;;;;5045510;28;20200;-63
2023/06/08 00:09:43;;;;;;;4.20;3.90;;;21.60;86.50;;;;;;5042512;28;20200;-69
2023/06/08 00:12:11;;;;;;;4.72;3.83;;;21.60;86.70;;;;;;5051730;28;20452;-69
2023/06/08 00:14:38;;;;;;;4.50;4.10;;;21.60;86.70;;;;;;5056207;28;20610;-70
2023/06/08 00:17:05;;;;;;;4.93;3.83;;;21.70;87.10;;;;;;5049074;28;20609;-70
2023/06/08 00:19:33;;;;;;;3.57;3.27;;;21.60;87.00;;;;;;5047930;28;20557;-67
2023/06/08 00:22:04;;;;;;;4.85;4.45;;;21.60;88.00;;;;;;5044293;28;20466;-70
2023/06/08 00:24:33;;;;;;;3.90;3.60;;;21.70;87.30;;;;;;5049005;28;20219;-69
2023/06/08 00:26:59;;;;;;;3.70;3.40;;;21.60;87.30;;;;;;5045709;28;20466;-70
2023/06/08 00:29:26;;;;;;;6.68;4.40;;;21.60;87.30;;;;;;5049681;28;20219;-70
2023/06/08 00:31:53;;;;;;;3.72;3.42;;;21.70;87.50;;;;;;5046427;28;20199;-70
2023/06/08 00:34:20;;;;;;;5.17;3.63;;;21.60;87.50;;;;;;5045700;28;20202;-64
2023/06/08 00:36:47;;;;;;;4.05;3.65;;;21.70;87.60;;;;;;5044179;28;20956;-69
2023/06/08 00:39:14;;;;;;;5.17;4.00;;;21.70;87.40;;;;;;5046209;28;20258;-68
2023/06/08 00:41:41;;;;;;;4.27;3.90;;;21.60;87.40;;;;;;5047469;28;20454;-70
2023/06/08 00:44:09;;;;;;;4.50;3.95;;;21.60;87.40;;;;;;5041225;28;20822;-70
2023/06/08 00:46:37;;;;;;;4.23;3.33;;;21.60;87.30;;;;;;5044686;28;20219;-70
2023/06/08 00:49:04;;;;;;;4.10;3.67;;;21.60;87.30;;;;;;5047789;28;20461;-69
2023/06/08 00:51:34;;;;;;;9.30;4.38;;;21.60;87.40;;;;;;5045299;28;20249;-65
2023/06/08 00:54:01;;;;;;;3.95;3.60;;;21.60;87.20;;;;;;5047746;28;20196;-68
2023/06/08 00:56:31;;;;;;;4.07;3.70;;;21.60;87.20;;;;;;5043248;28;20207;-71
2023/06/08 00:59:02;;;;;;;4.20;3.80;;;21.60;87.10;;;;;;5032961;28;20537;-67
2023/06/08 01:01:29;;;;;;;4.90;4.10;;;21.70;87.30;;;;;;5037203;28;20214;-68
2023/06/08 01:04:05;;;;;;;3.75;3.45;;;21.60;87.20;;;;;;5040182;28;20967;-70
2023/06/08 01:06:32;;;;;;;4.80;3.45;;;21.60;87.10;;;;;;5042993;28;20215;-70
2023/06/08 01:09:04;;;;;;;3.77;3.50;;;21.70;87.20;;;;;;5042522;28;20606;-69
2023/06/08 01:11:42;;;;;;;4.50;4.10;;;21.60;87.10;;;;;;5043939;28;20465;-69
2023/06/08 01:14:18;;;;;;;3.80;3.50;;;21.60;86.90;;;;;;5045313;28;20206;-68
2023/06/08 01:16:50;;;;;;;3.72;3.42;;;21.60;87.00;;;;;;5046504;28;20461;-70
2023/06/08 01:19:23;;;;;;;4.80;4.33;;;21.60;87.00;;;;;;5042856;28;20731;-67
2023/06/08 01:22:05;;;;;;;3.78;3.47;;;21.60;86.80;;;;;;5048678;28;21032;-70
2023/06/08 01:24:36;;;;;;;3.88;3.58;;;21.60;86.70;;;;;;5041975;28;20227;-70
2023/06/08 01:27:06;;;;;;;4.60;3.77;;;21.60;86.70;;;;;;5034623;28;20195;-69
2023/06/08 01:29:34;;;;;;;4.67;3.33;;;21.60;86.70;;;;;;5044459;28;20462;-69
2023/06/08 01:32:01;;;;;;;4.40;4.00;;;21.60;86.70;;;;;;5038813;28;20454;-70
2023/06/08 01:34:28;;;;;;;4.25;3.42;;;21.60;86.70;;;;;;5043375;28;20454;-69
2023/06/08 01:37:01;;;;;;;4.33;3.80;;;21.60;86.60;;;;;;5041674;28;20188;-70
2023/06/08 01:39:42;;;;;;;3.47;3.17;;;21.60;86.50;;;;;;5042423;28;20458;-70
2023/06/08 01:42:10;;;;;;;4.43;4.03;;;21.60;86.60;;;;;;5048537;28;20571;-70
2023/06/08 01:44:41;;;;;;;4.25;3.50;;;21.60;86.50;;;;;;5052174;28;20442;-70
2023/06/08 01:47:09;;;;;;;3.28;2.95;;;21.60;86.40;;;;;;5048784;28;20690;-69
2023/06/08 01:49:37;;;;;;;4.20;3.70;;;21.60;86.40;;;;;;5045909;28;20222;-69
2023/06/08 01:52:04;;;;;;;3.60;3.30;;;21.60;86.40;;;;;;5050137;28;20206;-69
2023/06/08 01:54:31;;;;;;;3.50;3.20;;;21.60;86.40;;;;;;5049317;28;20261;-67
2023/06/08 01:56:59;;;;;;;4.30;3.80;;;21.60;86.50;;;;;;5051403;28;20191;-70
2023/06/08 01:59:26;;;;;;;4.43;3.63;;;21.60;86.00;;;;;;5044709;28;20503;-69
2023/06/08 02:01:52;;;;;;;4.10;3.70;;;21.60;86.10;;;;;;5051088;28;20512;-70
2023/06/08 02:04:19;;;;;;;3.23;3.03;;;21.70;86.30;;;;;;5049078;28;20488;-70
2023/06/08 02:06:46;;;;;;;3.67;3.37;;;21.60;86.00;;;;;;5044654;28;20505;-70
2023/06/08 02:09:12;;;;;;;4.40;3.57;;;21.60;86.00;;;;;;5047931;28;20470;-69
2023/06/08 02:11:39;;;;;;;3.10;2.90;;;21.60;86.00;;;;;;5047559;28;20459;-70
2023/06/08 02:14:07;;;;;;;3.43;3.20;;;21.60;86.00;;;;;;5042906;28;20217;-70
2023/06/08 02:16:34;;;;;;;4.73;3.53;;;21.60;86.00;;;;;;5047381;28;20522;-70
2023/06/08 02:19:01;;;;;;;4.10;3.70;;;21.60;86.00;;;;;;5044980;28;20467;-69
2023/06/08 02:21:28;;;;;;;4.10;3.45;;;21.60;85.90;;;;;;5047247;28;20199;-71
2023/06/08 02:23:55;;;;;;;3.92;3.55;;;21.60;85.90;;;;;;5050759;28;20741;-71
2023/06/08 02:26:22;;;;;;;3.63;3.33;;;21.60;85.80;;;;;;5049552;28;20220;-70
2023/06/08 02:28:49;;;;;;;3.42;3.20;;;21.60;85.80;;;;;;5043626;28;21039;-70
2023/06/08 02:31:17;;;;;;;3.92;3.05;;;21.60;85.90;;;;;;5050520;28;20191;-67
2023/06/08 02:33:43;;;;;;;4.20;3.70;;;21.60;85.70;;;;;;5047831;28;20623;-69
2023/06/08 02:36:10;;;;;;;3.90;3.60;;;21.60;85.70;;;;;;5046282;28;20953;-70
2023/06/08 02:38:39;;;;;;;3.37;3.07;;;21.60;85.70;;;;;;5044536;28;20453;-71
2023/06/08 02:41:06;;;;;;;3.83;3.53;;;21.60;85.70;;;;;;5047936;28;20830;-70
2023/06/08 02:43:33;;;;;;;4.18;3.72;;;21.60;85.70;;;;;;5044524;28;20586;-71
2023/06/08 02:46:00;;;;;;;3.30;2.67;;;21.60;85.60;;;;;;5046461;28;20227;-68
2023/06/08 02:48:28;;;;;;;3.53;3.23;;;21.60;85.50;;;;;;5041336;28;20202;-71
2023/06/08 02:50:54;;;;;;;6.40;4.20;;;21.60;85.40;;;;;;5050410;28;20454;-70
2023/06/08 02:53:21;;;;;;;3.40;3.10;;;21.60;85.40;;;;;;5050529;28;20821;-70
2023/06/08 02:55:50;;;;;;;3.60;3.30;;;21.60;85.40;;;;;;5043069;28;20465;-70
2023/06/08 02:58:18;;;;;;;3.38;3.17;;;21.60;85.40;;;;;;5047079;28;20513;-68
2023/06/08 03:00:44;;;;;;;3.17;2.87;;;21.60;85.40;;;;;;5041174;28;20196;-70
2023/06/08 03:03:12;;;;;;;4.10;3.70;;;21.60;85.20;;;;;;5046486;28;20462;-68
2023/06/08 03:05:40;;;;;;;4.00;3.70;;;21.60;85.10;;;;;;5061246;28;20572;-70
2023/06/08 03:08:08;;;;;;;3.20;2.90;;;21.60;85.30;;;;;;5051730;28;20474;-69
2023/06/08 03:10:34;;;;;;;3.05;2.85;;;21.60;85.30;;;;;;5047294;28;20458;-69
2023/06/08 03:13:01;;;;;;;2.93;2.73;;;21.60;85.30;;;;;;5047054;28;20564;-69
2023/06/08 03:15:29;;;;;;;3.78;3.47;;;21.60;85.30;;;;;;5055705;28;20469;-66
2023/06/08 03:17:56;;;;;;;3.77;3.40;;;21.60;86.00;;;;;;5058018;28;20288;-67
2023/06/08 03:20:22;;;;;;;3.00;2.80;;;21.60;85.10;;;;;;5042881;28;20453;-69
2023/06/08 03:22:50;;;;;;;4.03;3.53;;;21.60;85.10;;;;;;5050586;28;20543;-70
2023/06/08 03:25:17;;;;;;;3.37;3.07;;;21.60;85.10;;;;;;5049595;28;20711;-70
2023/06/08 03:27:44;;;;;;;3.20;2.90;;;21.60;85.10;;;;;;5048481;28;20458;-70
2023/06/08 03:30:12;;;;;;;3.70;2.80;;;21.60;85.00;;;;;;5046339;28;20461;-70
2023/06/08 03:32:39;;;;;;;3.25;3.05;;;21.60;85.00;;;;;;5054837;28;20493;-69
2023/06/08 03:35:07;;;;;;;4.27;3.87;;;21.60;85.70;;;;;;5045547;28;20671;-70
2023/06/08 03:37:33;;;;;;;3.00;2.80;;;21.60;84.90;;;;;;5048948;28;20537;-70
2023/06/08 03:40:01;;;;;;;3.40;3.10;;;21.60;84.80;;;;;;5047513;28;20202;-68
2023/06/08 03:42:28;;;;;;;3.07;2.77;;;21.60;84.80;;;;;;5045636;28;20200;-70
2023/06/08 03:44:55;;;;;;;3.53;3.23;;;21.60;84.80;;;;;;5043718;28;20462;-70
2023/06/08 03:47:21;;;;;;;3.93;3.63;;;21.60;84.80;;;;;;5044774;28;20532;-71
2023/06/08 03:49:48;;;;;;;2.80;2.60;;;21.60;84.70;;;;;;5046739;28;20732;-70
2023/06/08 03:52:15;;;;;;;3.15;2.95;;;21.60;84.80;;;;;;5049100;28;20466;-70
2023/06/08 03:54:41;;;;;;;3.17;2.87;;;21.60;84.70;;;;;;5051067;28;20312;-71
2023/06/08 03:57:10;;;;;;;3.20;2.90;;;21.60;84.60;;;;;;5048243;28;20897;-71
2023/06/08 03:59:37;;;;;;;3.60;3.30;;;21.60;84.60;;;;;;5048050;28;20454;-70
2023/06/08 04:02:04;;;;;;;3.23;2.93;;;21.60;84.60;;;;;;5042360;28;20459;-70
2023/06/08 04:04:31;;;;;;;3.73;3.43;;;21.60;84.50;;;;;;5043184;28;20478;-69
2023/06/08 04:07:00;;;;;;;2.73;2.53;;;21.60;84.50;;;;;;5042658;28;20486;-70
2023/06/08 04:09:26;;;;;;;3.20;3.00;;;21.60;84.50;;;;;;5047915;28;20463;-69
2023/06/08 04:11:53;;;;;;;3.47;2.60;;;21.50;84.40;;;;;;5047879;28;20465;-71
2023/06/08 04:14:21;;;;;;;3.20;3.00;;;21.60;84.50;;;;;;5051261;28;20489;-71
2023/06/08 04:16:48;;;;;;;3.60;3.30;;;21.50;84.40;;;;;;5049493;28;20462;-72
2023/06/08 04:19:15;;;;;;;2.87;2.67;;;21.60;84.40;;;;;;5047252;28;20218;-70
2023/06/08 04:21:42;;;;;;;3.43;3.10;;;21.50;84.40;;;;;;5046184;28;20461;-70
2023/06/08 04:24:09;;;;;;;2.93;2.73;;;21.60;85.10;;;;;;5047745;28;20474;-70
2023/06/08 04:26:36;;;;;;;3.78;3.47;;;21.50;84.40;;;;;;5044833;28;20823;-71
2023/06/08 04:29:03;;;;;;;3.60;3.30;;;21.50;84.20;;;;;;5041428;28;20282;-71
2023/06/08 04:31:31;;;;;;;3.27;3.07;;;21.60;84.30;;;;;;5044322;28;20828;-70
2023/06/08 04:33:58;;;;;;;3.10;2.83;;;21.50;84.30;;;;;;5042811;28;20942;-70
2023/06/08 04:36:25;;;;;;;2.97;2.77;;;21.50;84.20;;;;;;5048786;28;20519;-69
2023/06/08 04:38:52;;;;;;;2.53;2.28;;;21.50;84.30;;;;;;5056591;28;20884;-70
2023/06/08 04:41:19;;;;;;;3.45;3.15;;;21.60;84.30;;;;;;5047637;28;20606;-71
2023/06/08 04:43:49;;;;;;;3.20;3.00;;;21.50;84.20;;;;;;5046231;28;20608;-68
2023/06/08 04:46:16;;;;;;;2.92;2.72;;;21.50;84.20;;;;;;5048810;28;20213;-70
2023/06/08 04:48:44;;;;;;;4.75;3.28;;;21.50;84.10;;;;;;5043568;28;20194;-70
2023/06/08 04:51:11;;;;;;;2.97;2.78;;;21.50;84.20;;;;;;5049215;28;20202;-66
2023/06/08 04:53:38;;;;;;;3.10;2.80;;;21.50;84.10;;;;;;5043322;28;20566;-69
2023/06/08 04:56:05;;;;;;;3.05;2.85;;;21.50;84.10;;;;;;5047508;28;20467;-70
2023/06/08 04:58:33;;;;;;;2.87;2.63;;;21.50;84.20;;;;;;5046387;28;20208;-70
2023/06/08 05:01:00;;;;;;;3.20;2.50;;;21.60;84.20;;;;;;5047221;28;20961;-70
2023/06/08 05:03:27;;;;;;;3.00;2.80;;;21.50;84.10;;;;;;5049998;28;20462;-71
2023/06/08 05:05:55;;;;;;;3.10;2.80;;;21.50;84.00;;;;;;5048695;28;20489;-69
2023/06/08 05:08:22;;;;;;;2.83;2.60;;;21.50;84.10;;;;;;5042929;28;20682;-69
2023/06/08 05:10:49;;;;;;;3.30;3.00;;;21.50;84.10;;;;;;5048439;28;20690;-71
2023/06/08 05:13:16;;;;;;;4.85;3.42;;;21.50;83.90;;;;;;5042860;28;20275;-70
2023/06/08 05:15:42;;;;;;;2.70;2.50;;;21.50;83.90;;;;;;5046081;28;20234;-70
2023/06/08 05:18:09;;;;;;;3.78;3.47;;;21.50;84.00;;;;;;5046507;28;20968;-66
2023/06/08 05:20:36;;;;;;;3.90;3.07;;;21.50;84.00;;;;;;5046199;28;20191;-69
2023/06/08 05:23:04;;;;;;;2.90;2.70;;;21.50;83.90;;;;;;5047841;28;20535;-70
2023/06/08 05:25:31;;;;;;;3.95;3.20;;;21.50;83.90;;;;;;5052054;28;20196;-65
2023/06/08 05:27:57;;;;;;;3.17;2.90;;;21.60;84.00;;;;;;5044852;28;20223;-63
2023/06/08 05:30:25;;;;;;;2.90;2.70;;;21.50;84.00;;;;;;5045117;28;20287;-70
2023/06/08 05:32:51;;;;;;;3.27;2.97;;;21.50;83.90;;;;;;5046065;28;20187;-68
2023/06/08 05:35:18;;;;;;;4.10;3.33;;;21.50;83.90;;;;;;5044641;28;20877;-69
2023/06/08 05:37:45;;;;;;;3.33;3.03;;;21.50;84.00;;;;;;5048593;28;20198;-71
2023/06/08 05:40:14;;;;;;;3.13;2.93;;;21.50;84.00;;;;;;5043514;28;20515;-68
2023/06/08 05:42:40;;;;;;;2.95;2.63;;;21.50;83.90;;;;;;5044851;28;20458;-70
2023/06/08 05:45:08;;;;;;;2.50;2.30;;;21.50;83.90;;;;;;5045619;28;20199;-70
2023/06/08 05:47:35;;;;;;;3.55;3.35;;;21.50;83.90;;;;;;5045567;28;20211;-71
2023/06/08 05:50:01;;;;;;;4.07;3.20;;;21.50;83.70;;;;;;5035489;28;20775;-68
2023/06/08 05:52:28;;;;;;;3.35;3.05;;;21.50;83.90;;;;;;5041410;28;20606;-69
2023/06/08 05:54:55;;;;;;;2.40;2.20;;;21.50;83.80;;;;;;5047676;28;20652;-70
2023/06/08 05:57:23;;;;;;;3.30;3.00;;;21.50;83.80;;;;;;5042492;28;20207;-70
2023/06/08 05:59:50;;;;;;;3.10;2.85;;;21.50;83.70;;;;;;5040514;28;20254;-65
2023/06/08 06:02:16;;;;;;;3.03;2.83;;;21.50;83.70;;;;;;5024839;28;20658;-65
2023/06/08 06:04:44;;;;;;;3.70;3.40;;;21.50;83.80;;;;;;5035742;28;20526;-66
2023/06/08 06:07:10;;;;;;;3.40;3.10;;;21.50;83.70;;;;;;5044180;28;20556;-62
2023/06/08 06:09:37;;;;;;;4.00;3.10;;;21.50;83.80;;;;;;5044584;28;20664;-65
2023/06/08 06:12:07;;;;;;;2.75;2.55;;;21.50;83.90;;;;;;5048574;28;20656;-66
2023/06/08 06:14:39;;;;;;;2.88;2.65;;;21.50;83.90;;;;;;5041459;28;20326;-66
2023/06/08 06:17:06;;;;;;;2.65;2.45;;;21.50;83.90;;;;;;5040771;28;20215;-64
2023/06/08 06:19:36;;;;;;;2.63;2.42;;;21.50;83.90;;;;;;5039438;28;20192;-66
2023/06/08 06:22:03;;;;;;;3.00;2.80;;;21.60;84.00;;;;;;5046377;28;20204;-66
2023/06/08 06:24:30;;;;;;;2.80;2.60;;;21.50;84.00;;;;;;5043860;28;20289;-65
2023/06/08 06:26:58;;;;;;;2.90;2.70;;;21.60;84.00;;;;;;5043477;28;20675;-64
2023/06/08 06:29:24;;;;;;;2.90;2.60;;;21.60;84.00;;;;;;5048870;28;20489;-66
2023/06/08 06:31:52;;;;;;;2.90;2.60;;;21.50;84.00;;;;;;5052474;28;20570;-65
2023/06/08 06:34:19;;;;;;;2.70;2.50;;;21.60;84.00;;;;;;5044162;28;20462;-65
2023/06/08 06:36:46;;;;;;;2.55;2.35;;;21.50;83.90;;;;;;5044908;28;20207;-65
2023/06/08 06:39:13;;;;;;;3.10;2.90;;;21.60;84.00;;;;;;5047762;28;20192;-65
2023/06/08 06:41:40;;;;;;;3.15;2.85;;;21.60;84.00;;;;;;5045138;28;20199;-65
2023/06/08 06:44:08;;;;;;;3.25;2.95;;;21.50;83.90;;;;;;5042594;28;20206;-65
2023/06/08 06:46:35;;;;;;;3.03;2.67;;;21.60;83.90;;;;;;5045326;28;20652;-65
2023/06/08 06:49:03;;;;;;;2.80;2.30;;;21.50;83.90;;;;;;5041744;28;20200;-65
2023/06/08 06:51:29;;;;;;;3.33;3.08;;;21.50;83.90;;;;;;5048756;28;20594;-66
2023/06/08 06:53:56;;;;;;;3.78;3.13;;;21.60;84.10;;;;;;5049237;28;20270;-64
2023/06/08 06:56:23;;;;;;;3.20;2.88;;;21.60;84.20;;;;;;5049311;28;20200;-65
2023/06/08 06:58:52;;;;;;;2.85;2.65;;;21.60;84.20;;;;;;5046780;28;20701;-66
2023/06/08 07:01:19;;;;;;;2.85;2.58;;;21.60;84.30;;;;;;5043276;28;20195;-65
2023/06/08 07:03:46;;;;;;;3.40;3.10;;;21.60;84.40;;;;;;5045502;28;20234;-65
2023/06/08 07:06:14;;;;;;;3.35;2.80;;;21.60;84.40;;;;;;5049909;28;20537;-65
2023/06/08 07:08:41;;;;;;;3.25;3.05;;;21.60;84.50;;;;;;5042945;28;20220;-65
2023/06/08 07:11:08;;;;;;;4.13;3.83;;;21.60;84.60;;;;;;5043157;28;20203;-65
2023/06/08 07:13:35;;;;;;;3.20;2.90;;;21.60;84.60;;;;;;5050734;28;20195;-66
2023/06/08 07:16:03;;;;;;;3.40;3.10;;;21.60;84.60;;;;;;5041858;28;20200;-66
2023/06/08 07:18:29;;;;;;;7.35;4.22;;;21.60;84.60;;;;;;5044782;28;20459;-65
2023/06/08 07:20:57;;;;;;;4.65;4.00;;;21.60;85.00;;;;;;5049633;28;20533;-65
2023/06/08 07:23:25;;;;;;;6.20;5.30;;;21.60;85.10;;;;;;5049579;28;20687;-65
2023/06/08 07:25:52;;;;;;;6.80;5.10;;;21.60;85.30;;;;;;5047232;28;20279;-64
2023/06/08 07:28:18;;;;;;;5.80;5.30;;;21.60;85.40;;;;;;5044837;28;20253;-64
2023/06/08 07:30:45;;;;;;;3.97;3.63;;;21.60;85.50;;;;;;5043655;28;20490;-66
2023/06/08 07:33:12;;;;;;;4.97;4.40;;;21.60;86.10;;;;;;5047586;28;20663;-64
2023/06/08 07:35:38;;;;;;;6.63;3.20;;;21.60;85.30;;;;;;5051036;28;20196;-64
2023/06/08 07:38:06;;;;;;;5.43;3.97;;;21.60;85.30;;;;;;5039651;28;20261;-65
2023/06/08 07:40:34;;;;;;;7.37;5.60;;;21.60;85.30;;;;;;5045804;28;20568;-65
2023/06/08 07:43:01;;;;;;;5.03;3.83;;;21.60;85.50;;;;;;5048169;28;20482;-65
2023/06/08 07:45:28;;;;;;;5.57;3.53;;;21.60;85.50;;;;;;5047337;28;20504;-65
2023/06/08 07:47:55;;;;;;;5.50;3.83;;;21.60;85.50;;;;;;5044348;28;20211;-67
2023/06/08 07:50:21;;;;;;;5.30;4.07;;;21.60;85.40;;;;;;5041105;28;20462;-63
2023/06/08 07:52:48;;;;;;;8.63;3.53;;;21.60;85.40;;;;;;5048419;28;20195;-64
2023/06/08 07:55:15;;;;;;;5.17;3.80;;;21.60;85.30;;;;;;5045500;28;20459;-61
2023/06/08 07:57:44;;;;;;;4.35;3.67;;;21.60;85.30;;;;;;5038378;28;20473;-63
2023/06/08 08:00:12;;;;;;;4.55;3.92;;;21.60;85.20;;;;;;5040748;28;20672;-64
2023/06/08 08:02:38;;;;;;;4.60;4.20;;;21.60;85.50;;;;;;5043161;28;20334;-64
2023/06/08 08:05:08;;;;;;;5.07;3.97;;;21.60;85.40;;;;;;5037645;28;20660;-62
2023/06/08 08:07:35;;;;;;;4.70;4.30;;;21.60;85.50;;;;;;5043723;28;21027;-63
2023/06/08 08:10:02;;;;;;;10.02;6.97;;;21.70;85.50;;;;;;5042685;28;20524;-61
2023/06/08 08:12:29;;;;;;;6.22;4.60;;;21.60;85.40;;;;;;5038945;28;20196;-63
2023/06/08 08:14:56;;;;;;;6.00;4.40;;;21.60;85.60;;;;;;5044714;28;20214;-62
2023/06/08 08:17:23;;;;;;;4.97;4.47;;;21.70;85.90;;;;;;5044590;28;21708;-60
2023/06/08 08:19:50;;;;;;;9.20;4.60;;;21.60;85.90;;;;;;5040164;28;20458;-63
2023/06/08 08:22:16;;;;;;;4.60;4.20;;;21.60;85.70;;;;;;5047382;28;20872;-62
2023/06/08 08:24:43;;;;;;;5.03;4.37;;;21.70;86.00;;;;;;5043179;28;20478;-62
2023/06/08 08:27:11;;;;;;;6.40;4.88;;;21.70;85.90;;;;;;5046279;28;20474;-62
2023/06/08 08:29:37;;;;;;;6.20;3.97;;;21.70;85.90;;;;;;5038505;28;20658;-63
2023/06/08 08:32:06;;;;;;;7.03;4.18;;;21.70;86.10;;;;;;5034428;28;20473;-62
2023/06/08 08:34:33;;;;;;;7.87;4.77;;;21.70;85.80;;;;;;5041767;28;20224;-62
2023/06/08 08:37:00;;;;;;;7.60;4.70;;;21.70;85.70;;;;;;5043898;28;20469;-61
2023/06/08 08:39:27;;;;;;;7.47;4.80;;;21.70;86.20;;;;;;5039526;28;20457;-62
2023/06/08 08:41:57;;;;;;;9.90;4.40;;;21.70;85.90;;;;;;5040566;28;20457;-62
2023/06/08 08:44:26;;;;;;;8.03;4.80;;;21.70;86.00;;;;;;5044641;28;20465;-63
2023/06/08 08:46:54;;;;;;;6.27;4.63;;;21.70;86.20;;;;;;5044957;28;20458;-62
2023/06/08 08:49:24;;;;;;;4.80;4.30;;;21.70;86.10;;;;;;5041440;28;20539;-62
2023/06/08 08:51:52;;;;;;;5.60;3.83;;;21.70;86.10;;;;;;5042941;28;20454;-63
2023/06/08 08:54:31;;;;;;;7.47;4.53;;;21.70;86.00;;;;;;5036647;28;20462;-63
2023/06/08 08:56:58;;;;;;;7.13;4.60;;;21.70;86.00;;;;;;5040381;28;20477;-62
2023/06/08 08:59:27;;;;;;;4.50;4.10;;;21.70;86.00;;;;;;5040072;28;20196;-63
2023/06/08 09:01:53;;;;;;;10.60;6.30;;;21.70;86.10;;;;;;5045477;28;20528;-61
2023/06/08 09:04:22;;;;;;;6.10;4.90;;;21.70;86.10;;;;;;5041233;28;20470;-62
2023/06/08 09:06:49;;;;;;;8.27;4.63;;;21.70;86.10;;;;;;5045062;28;20454;-62
2023/06/08 09:09:17;;;;;;;4.40;3.97;;;21.70;86.10;;;;;;5038699;28;20227;-62
2023/06/08 09:11:58;;;;;;;4.80;4.35;;;21.70;86.00;;;;;;5042161;28;20624;-63
2023/06/08 09:14:24;;;;;;;8.67;4.30;;;21.70;86.00;;;;;;5041812;28;20294;-62
2023/06/08 09:16:51;;;;;;;5.97;3.80;;;21.70;85.90;;;;;;5039846;28;20512;-64
2023/06/08 09:19:18;;;;;;;5.60;4.10;;;21.70;86.10;;;;;;5039473;28;20570;-64
2023/06/08 09:21:47;;;;;;;4.50;4.10;;;21.70;86.00;;;;;;5045033;28;20520;-63
2023/06/08 09:24:16;;;;;;;5.60;5.10;;;21.70;85.70;;;;;;5037801;28;21032;-63
2023/06/08 09:26:47;;;;;;;9.45;4.72;;;21.70;85.70;;;;;;5040434;28;20523;-63
2023/06/08 09:29:30;;;;;;;6.37;4.77;;;21.80;86.00;;;;;;5038737;28;20224;-63
2023/06/08 09:31:57;;;;;;;5.70;4.33;;;21.80;86.00;;;;;;5041930;28;20507;-63
2023/06/08 09:34:23;;;;;;;4.70;4.30;;;21.80;85.90;;;;;;5042308;28;20465;-63
2023/06/08 09:36:52;;;;;;;5.28;3.85;;;21.80;86.00;;;;;;5044372;28;20520;-63
2023/06/08 09:39:19;;;;;;;4.33;3.77;;;21.80;85.90;;;;;;5038093;28;20575;-62
2023/06/08 09:41:56;;;;;;;6.23;4.93;;;21.80;86.00;;;;;;5041228;28;20818;-63
2023/06/08 09:44:23;;;;;;;5.37;4.87;;;21.80;86.00;;;;;;5034915;28;20463;-64
2023/06/08 09:46:50;;;;;;;4.57;4.17;;;21.80;86.20;;;;;;5045792;28;20462;-66
2023/06/08 09:49:17;;;;;;;6.13;4.75;;;21.80;86.30;;;;;;5041928;28;20474;-62
2023/06/08 09:51:47;;;;;;;6.00;4.10;;;21.80;86.40;;;;;;5041325;28;21950;-62
2023/06/08 09:54:17;;;;;;;4.67;4.23;;;21.80;86.50;;;;;;5040700;28;21338;-62
2023/06/08 09:56:48;;;;;;;5.97;4.30;;;21.80;86.40;;;;;;5039775;28;20893;-63
2023/06/08 09:59:17;;;;;;;4.80;4.40;;;21.80;86.60;;;;;;5037537;28;20463;-62
2023/06/08 10:01:47;;;;;;;5.53;4.97;;;21.80;86.70;;;;;;5043691;28;20248;-63
2023/06/08 10:04:23;;;;;;;6.40;4.93;;;21.80;86.80;;;;;;5038166;28;20505;-63
2023/06/08 10:06:56;;;;;;;6.68;4.80;;;21.80;87.10;;;;;;5052249;28;20461;-63
2023/06/08 10:09:28;;;;;;;5.38;4.88;;;21.80;87.20;;;;;;5046104;28;20219;-63
2023/06/08 10:11:56;;;;;;;5.55;4.50;;;21.80;87.60;;;;;;5042288;28;20187;-62
2023/06/08 10:14:25;;;;;;;7.83;5.07;;;21.80;87.40;;;;;;5036475;28;20199;-62
2023/06/08 10:16:52;;;;;;;8.13;5.50;;;21.80;87.50;;;;;;5043347;28;20953;-69
2023/06/08 10:19:19;;;;;;;6.20;5.20;;;21.80;87.70;;;;;;5040605;28;20546;-67
2023/06/08 10:21:46;;;;;;;6.53;5.53;;;21.90;87.90;;;;;;5030309;28;20462;-60
2023/06/08 10:24:13;;;;;;;5.67;5.17;;;21.90;87.90;;;;;;5038115;28;20496;-60
2023/06/08 10:26:41;;;;;;;5.83;4.70;;;21.90;88.30;;;;;;5041707;28;20802;-60
2023/06/08 10:29:10;;;;;;;6.07;4.50;;;21.90;88.30;;;;;;5042855;28;20474;-60
2023/06/08 10:31:40;;;;;;;6.33;5.13;;;21.90;88.40;;;;;;5039081;28;20953;-61
2023/06/08 10:34:10;;;;;;;5.00;4.60;;;21.90;88.40;;;;;;5042033;28;20472;-60
2023/06/08 10:36:39;;;;;;;8.77;5.47;;;21.90;88.50;;;;;;5037418;28;20449;-61
2023/06/08 10:39:10;;;;;;;7.90;4.73;;;21.90;88.60;;;;;;5046794;28;20497;-60
2023/06/08 10:41:43;;;;;;;6.37;5.50;;;21.90;88.70;;;;;;5041276;28;20945;-60
2023/06/08 10:44:26;;;;;;;6.03;5.37;;;21.90;89.00;;;;;;5043999;28;20465;-60
2023/06/08 10:46:59;;;;;;;7.53;6.50;;;21.90;89.20;;;;;;5035287;28;20461;-61
2023/06/08 10:49:28;;;;;;;17.83;6.30;;;21.90;89.30;;;;;;5039982;28;20470;-61
2023/06/08 10:51:56;;;;;;;7.53;5.97;;;21.90;89.30;;;;;;5041524;28;20458;-60
2023/06/08 10:54:23;;;;;;;9.45;6.03;;;21.90;89.50;;;;;;5046865;28;20467;-61
2023/06/08 10:56:54;;;;;;;6.80;5.43;;;21.90;89.60;;;;;;5048541;28;20199;-61
2023/06/08 10:59:32;;;;;;;6.10;5.60;;;21.90;89.60;;;;;;5040814;28;20599;-61
2023/06/08 11:02:02;;;;;;;6.07;5.30;;;21.90;90.00;;;;;;5042070;28;21023;-60
2023/06/08 11:04:29;;;;;;;6.50;5.90;;;22.00;90.00;;;;;;5044330;28;20454;-61
2023/06/08 11:07:00;;;;;;;8.13;6.00;;;22.00;90.00;;;;;;5038336;28;21067;-61
2023/06/08 11:09:30;;;;;;;7.60;5.97;;;21.90;90.10;;;;;;5037741;28;20488;-61
2023/06/08 11:11:58;;;;;;;6.77;5.87;;;21.90;90.10;;;;;;5040259;28;20493;-60
2023/06/08 11:14:24;;;;;;;7.70;7.00;;;21.90;90.20;;;;;;5038854;28;20525;-61
2023/06/08 11:16:52;;;;;;;7.30;6.47;;;21.90;90.30;;;;;;5040774;28;20455;-61
2023/06/08 11:19:19;;;;;;;6.90;6.30;;;22.00;90.20;;;;;;5038939;28;20477;-61
2023/06/08 11:21:46;;;;;;;7.47;6.07;;;22.00;90.20;;;;;;5044257;28;20546;-61
2023/06/08 11:24:15;;;;;;;14.50;6.33;;;22.00;90.50;;;;;;5037886;28;20873;-62
2023/06/08 11:26:42;;;;;;;8.33;5.80;;;22.00;90.50;;;;;;5042980;28;20553;-62
2023/06/08 11:29:10;;;;;;;7.20;5.60;;;22.00;90.50;;;;;;5043867;28;21036;-60
2023/06/08 11:31:40;;;;;;;7.10;6.40;;;22.00;90.50;;;;;;5043567;28;20454;-62
2023/06/08 11:34:07;;;;;;;8.10;6.63;;;22.00;90.50;;;;;;5044419;28;20458;-61
2023/06/08 11:36:36;;;;;;;7.33;6.63;;;22.00;90.60;;;;;;5048534;28;20454;-61
2023/06/08 11:39:03;;;;;;;7.67;6.63;;;22.00;90.60;;;;;;5054920;28;20941;-61
2023/06/08 11:41:30;;;;;;;6.93;6.27;;;22.00;90.60;;;;;;5048237;28;20825;-60
2023/06/08 11:43:57;;;;;;;10.33;6.93;;;22.00;90.70;;;;;;5041787;28;20581;-62
2023/06/08 11:46:27;;;;;;;8.13;6.33;;;22.00;90.70;;;;;;5045058;28;20466;-61
2023/06/08 11:48:54;;;;;;;11.00;6.73;;;22.00;90.70;;;;;;5042328;28;20482;-61
2023/06/08 11:51:25;;;;;;;6.40;5.90;;;22.00;90.70;;;;;;5052969;28;21995;-61
2023/06/08 11:53:51;;;;;;;7.53;6.57;;;22.00;90.70;;;;;;5046653;28;20454;-62
2023/06/08 11:56:18;;;;;;;7.67;6.53;;;22.00;90.70;;;;;;5032795;28;20979;-62
2023/06/08 11:58:47;;;;;;;7.63;6.40;;;22.00;90.70;;;;;;5043308;28;20821;-62
2023/06/08 12:01:13;;;;;;;6.93;5.97;;;22.00;90.80;;;;;;5053589;28;20453;-61
2023/06/08 12:03:45;;;;;;;10.00;6.07;;;22.00;90.80;;;;;;5045482;28;20461;-61
2023/06/08 12:06:13;;;;;;;10.50;5.87;;;22.00;90.80;;;;;;5049218;28;20195;-62
2023/06/08 12:08:40;;;;;;;9.90;7.00;;;22.00;90.90;;;;;;5048310;28;20562;-62
2023/06/08 12:11:11;;;;;;;7.03;6.00;;;22.00;90.80;;;;;;5046498;28;20553;-61
2023/06/08 12:13:40;;;;;;;7.03;6.17;;;22.00;90.80;;;;;;5041130;28;20458;-61
2023/06/08 12:16:07;;;;;;;9.83;7.50;;;22.00;90.80;;;;;;5049958;28;20445;-61
2023/06/08 12:18:38;;;;;;;6.77;6.07;;;22.00;90.90;;;;;;5041692;28;20884;-61
2023/06/08 12:21:07;;;;;;;6.60;5.63;;;22.00;90.80;;;;;;5043992;28;20549;-61
2023/06/08 12:23:34;;;;;;;5.83;5.33;;;22.00;90.90;;;;;;5046115;28;20474;-61
2023/06/08 12:26:01;;;;;;;6.97;6.27;;;22.00;90.80;;;;;;5046805;28;21167;-61
2023/06/08 12:28:27;;;;;;;6.30;5.80;;;22.00;90.80;;;;;;5043506;28;20486;-61
2023/06/08 12:30:54;;;;;;;7.60;6.50;;;22.10;90.90;;;;;;5045517;28;20438;-61
2023/06/08 12:33:21;;;;;;;8.77;6.47;;;22.00;90.80;;;;;;5041570;28;21033;-62
2023/06/08 12:35:49;;;;;;;7.93;6.13;;;22.10;90.80;;;;;;5043625;28;20249;-62
2023/06/08 12:38:18;;;;;;;6.40;5.80;;;22.00;90.70;;;;;;5041620;28;20466;-61
2023/06/08 12:40:47;;;;;;;7.60;6.70;;;22.10;90.90;;;;;;5046059;28;20531;-61
2023/06/08 12:43:15;;;;;;;8.97;6.87;;;22.10;90.90;;;;;;5046270;28;21058;-61
2023/06/08 12:45:42;;;;;;;7.27;6.10;;;22.00;90.80;;;;;;5040537;28;20553;-61
2023/06/08 12:48:09;;;;;;;6.87;6.27;;;22.00;90.90;;;;;;5040402;28;20516;-61
2023/06/08 12:50:38;;;;;;;6.53;5.77;;;22.00;90.80;;;;;;5043184;28;21191;-60